Time;durP1;ratioP1;P1;durP2;ratioP2;P2;SDS_P1;SDS_P2;PMS_P1;PMS_P2;Temp;Humidity;BMP_temperature;BMP_pressure;BME280_temperature;BME280_humidity;BME280_pressure;Samples;Min_cycle;Max_cycle;Signal;HPM_P1;HPM_P2
2022/01/17 00:01:32;;;;;;;0.80;0.80;;;;;;;;;;5021986;28;20270;-66
2022/01/17 00:03:58;;;;;;;0.70;0.70;;;;;;;;;;5020326;28;20273;-66
2022/01/17 00:06:24;;;;;;;0.70;0.70;;;;;;;;;;5018098;28;20180;-65
2022/01/17 00:08:50;;;;;;;0.70;0.70;;;;;;;;;;5021779;28;20996;-66
2022/01/17 00:11:17;;;;;;;0.90;0.90;;;;;;;;;;5021973;28;20726;-66
2022/01/17 00:13:44;;;;;;;0.95;0.95;;;;;;;;;;5017492;28;20194;-65
2022/01/17 00:16:17;;;;;;;0.80;0.80;;;;;;;;;;5021219;28;20176;-66
2022/01/17 00:21:09;;;;;;;0.70;0.70;;;;;;;;;;5021152;28;20204;-65
2022/01/17 00:23:35;;;;;;;0.70;0.70;;;;;;;;;;5019094;28;20265;-65
2022/01/17 00:26:01;;;;;;;0.60;0.60;;;;;;;;;;5022125;28;20280;-66
2022/01/17 00:28:27;;;;;;;0.80;0.80;;;;;;;;;;5020762;28;20172;-66
2022/01/17 00:30:53;;;;;;;0.90;0.90;;;;;;;;;;5020617;28;20203;-65
2022/01/17 00:33:19;;;;;;;1.13;1.10;;;;;;;;;;5021842;28;20634;-66
2022/01/17 00:35:45;;;;;;;0.70;0.70;;;;;;;;;;5020405;28;20538;-66
2022/01/17 00:38:12;;;;;;;0.80;0.80;;;;;;;;;;5021078;28;20180;-65
2022/01/17 00:40:39;;;;;;;0.90;0.90;;;;;;;;;;5022346;28;20413;-65
2022/01/17 00:43:05;;;;;;;0.60;0.60;;;;;;;;;;5017556;28;20225;-65
2022/01/17 00:45:31;;;;;;;0.87;0.87;;;;;;;;;;5020890;28;20699;-65
2022/01/17 00:47:58;;;;;;;0.75;0.75;;;;;;;;;;5021714;28;20406;-66
2022/01/17 00:50:24;;;;;;;0.70;0.70;;;;;;;;;;5017246;28;20183;-66
2022/01/17 00:52:51;;;;;;;0.70;0.70;;;;;;;;;;5019432;28;20180;-65
2022/01/17 00:55:16;;;;;;;0.85;0.85;;;;;;;;;;5021531;28;20184;-66
2022/01/17 00:57:42;;;;;;;0.77;0.77;;;;;;;;;;5019891;28;20176;-66
2022/01/17 01:00:09;;;;;;;0.90;0.90;;;;;;;;;;5020163;28;20923;-65
2022/01/17 01:02:35;;;;;;;0.85;0.85;;;;;;;;;;5021145;28;20282;-66
2022/01/17 01:05:02;;;;;;;0.70;0.70;;;;;;;;;;5020070;28;20284;-65
2022/01/17 01:07:28;;;;;;;0.70;0.70;;;;;;;;;;5025030;28;20415;-66
2022/01/17 01:10:10;;;;;;;0.60;0.60;;;;;;;;;;5025165;28;20171;-65
2022/01/17 01:12:36;;;;;;;0.98;0.98;;;;;;;;;;5023428;28;20437;-65
2022/01/17 01:15:05;;;;;;;0.70;0.70;;;;;;;;;;5023388;28;20201;-65
2022/01/17 01:17:35;;;;;;;0.70;0.70;;;;;;;;;;5025383;28;20573;-65
2022/01/17 01:20:24;;;;;;;0.60;0.60;;;;;;;;;;5025498;28;20666;-65
2022/01/17 01:28:19;;;;;;;0.70;0.70;;;;;;;;;;5025278;28;20212;-66
2022/01/17 01:30:49;;;;;;;0.70;0.70;;;;;;;;;;5023230;28;20188;-66
2022/01/17 01:33:34;;;;;;;0.68;0.68;;;;;;;;;;5023704;28;20201;-65
2022/01/17 01:36:07;;;;;;;0.75;0.75;;;;;;;;;;5023700;28;20181;-66
2022/01/17 01:38:35;;;;;;;0.70;0.70;;;;;;;;;;5024468;28;20186;-66
2022/01/17 01:41:01;;;;;;;0.70;0.70;;;;;;;;;;5022763;28;20205;-66
2022/01/17 01:43:27;;;;;;;0.63;0.63;;;;;;;;;;5024836;28;20175;-66
2022/01/17 01:45:58;;;;;;;0.60;0.60;;;;;;;;;;5024467;28;20208;-65
2022/01/17 01:48:24;;;;;;;0.70;0.70;;;;;;;;;;5020284;28;20175;-65
2022/01/17 01:50:50;;;;;;;0.60;0.60;;;;;;;;;;5023953;28;20628;-65
2022/01/17 01:53:16;;;;;;;0.70;0.70;;;;;;;;;;5024332;28;20176;-65
2022/01/17 01:55:42;;;;;;;0.67;0.67;;;;;;;;;;5022434;28;20174;-66
2022/01/17 01:58:09;;;;;;;0.70;0.70;;;;;;;;;;5023994;28;20420;-66
2022/01/17 02:00:35;;;;;;;0.73;0.73;;;;;;;;;;5022855;28;20411;-66
2022/01/17 02:03:01;;;;;;;0.80;0.80;;;;;;;;;;5021918;28;20296;-65
2022/01/17 02:05:27;;;;;;;0.60;0.60;;;;;;;;;;5023345;28;20654;-65
2022/01/17 02:07:56;;;;;;;0.70;0.70;;;;;;;;;;5023902;28;20183;-66
2022/01/17 02:10:22;;;;;;;0.93;0.93;;;;;;;;;;5022148;28;20416;-65
2022/01/17 02:12:48;;;;;;;0.80;0.80;;;;;;;;;;5023729;28;20170;-65
2022/01/17 02:15:17;;;;;;;0.75;0.75;;;;;;;;;;5023801;28;20413;-65
2022/01/17 02:17:46;;;;;;;0.70;0.70;;;;;;;;;;5021109;28;20306;-65
2022/01/17 02:20:16;;;;;;;0.68;0.68;;;;;;;;;;5023213;28;20173;-66
2022/01/17 02:22:42;;;;;;;0.70;0.70;;;;;;;;;;5023805;28;20209;-66
2022/01/17 02:25:08;;;;;;;0.80;0.80;;;;;;;;;;5021455;28;20233;-65
2022/01/17 02:27:37;;;;;;;0.70;0.70;;;;;;;;;;5022720;28;20203;-65
2022/01/17 02:30:07;;;;;;;0.90;0.90;;;;;;;;;;5024238;28;20170;-65
2022/01/17 02:32:33;;;;;;;0.93;0.93;;;;;;;;;;5023003;28;20218;-65
2022/01/17 02:35:22;;;;;;;0.60;0.60;;;;;;;;;;5020643;28;20269;-66
2022/01/17 02:37:48;;;;;;;0.65;0.65;;;;;;;;;;5020639;28;20171;-65
2022/01/17 02:40:15;;;;;;;0.80;0.80;;;;;;;;;;5022229;28;20172;-66
2022/01/17 02:42:43;;;;;;;0.90;0.90;;;;;;;;;;5023687;28;20208;-66
2022/01/17 02:45:30;;;;;;;0.70;0.70;;;;;;;;;;5033892;22;20230;-62
2022/01/17 02:47:57;;;;;;;0.60;0.60;;;;;;;;;;4974345;28;20268;-62
2022/01/17 02:50:23;;;;;;;0.68;0.68;;;;;;;;;;4974636;28;20257;-63
2022/01/17 02:52:49;;;;;;;0.60;0.60;;;;;;;;;;4972700;28;20627;-63
2022/01/17 02:55:15;;;;;;;0.70;0.70;;;;;;;;;;4973956;28;20289;-63
2022/01/17 02:57:41;;;;;;;0.70;0.70;;;;;;;;;;4974214;28;20411;-63
2022/01/17 03:00:10;;;;;;;0.60;0.60;;;;;;;;;;4974191;28;20470;-61
2022/01/17 03:02:36;;;;;;;0.70;0.70;;;;;;;;;;4973997;28;20231;-62
2022/01/17 03:05:02;;;;;;;0.60;0.60;;;;;;;;;;4973989;28;20232;-62
2022/01/17 03:07:28;;;;;;;0.80;0.80;;;;;;;;;;4974192;28;20426;-63
2022/01/17 03:10:07;;;;;;;0.77;0.77;;;;;;;;;;4974243;28;20183;-63
2022/01/17 03:12:33;;;;;;;0.68;0.68;;;;;;;;;;4973971;28;20415;-63
2022/01/17 03:14:59;;;;;;;0.70;0.70;;;;;;;;;;4973971;28;20202;-62
2022/01/17 03:17:25;;;;;;;0.70;0.70;;;;;;;;;;4976823;28;20629;-62
2022/01/17 03:19:51;;;;;;;0.70;0.70;;;;;;;;;;4974030;28;20417;-61
2022/01/17 03:22:17;;;;;;;0.60;0.60;;;;;;;;;;4974015;28;20176;-63
2022/01/17 03:24:43;;;;;;;0.90;0.90;;;;;;;;;;4973415;28;20235;-63
2022/01/17 03:27:09;;;;;;;0.70;0.70;;;;;;;;;;4973665;28;20446;-60
2022/01/17 03:29:35;;;;;;;0.70;0.70;;;;;;;;;;4973355;28;20440;-61
2022/01/17 03:32:01;;;;;;;0.80;0.80;;;;;;;;;;4973603;28;20435;-61
2022/01/17 03:34:27;;;;;;;0.70;0.70;;;;;;;;;;4973149;28;20181;-61
2022/01/17 03:36:53;;;;;;;0.70;0.70;;;;;;;;;;4973225;28;20404;-60
2022/01/17 03:39:19;;;;;;;0.60;0.60;;;;;;;;;;4973504;28;20634;-60
2022/01/17 03:41:45;;;;;;;0.70;0.70;;;;;;;;;;4973537;28;20903;-61
2022/01/17 03:44:11;;;;;;;0.70;0.70;;;;;;;;;;4973331;28;20919;-61
2022/01/17 03:46:37;;;;;;;0.60;0.60;;;;;;;;;;4973160;28;20212;-63
2022/01/17 03:49:03;;;;;;;0.60;0.60;;;;;;;;;;4973043;28;20404;-63
2022/01/17 03:51:30;;;;;;;0.65;0.65;;;;;;;;;;4973119;28;20782;-63
2022/01/17 03:53:56;;;;;;;0.50;0.50;;;;;;;;;;4973160;28;20177;-63
2022/01/17 03:56:21;;;;;;;0.70;0.70;;;;;;;;;;4973171;28;20207;-63
2022/01/17 03:58:49;;;;;;;0.43;0.43;;;;;;;;;;4973177;28;20500;-63
2022/01/17 04:01:15;;;;;;;0.60;0.60;;;;;;;;;;4973096;28;20412;-64
2022/01/17 04:03:41;;;;;;;0.60;0.60;;;;;;;;;;4972692;28;20686;-63
2022/01/17 04:06:07;;;;;;;0.60;0.60;;;;;;;;;;4972761;28;20570;-63
2022/01/17 04:08:34;;;;;;;0.60;0.60;;;;;;;;;;4972964;28;20398;-63
2022/01/17 04:11:00;;;;;;;0.60;0.60;;;;;;;;;;4973031;28;20236;-63
2022/01/17 04:13:26;;;;;;;0.70;0.70;;;;;;;;;;4972766;28;20179;-63
2022/01/17 04:15:52;;;;;;;0.50;0.50;;;;;;;;;;4972812;28;20438;-63
2022/01/17 04:18:23;;;;;;;0.50;0.50;;;;;;;;;;4973006;28;20534;-63
2022/01/17 04:20:49;;;;;;;0.60;0.60;;;;;;;;;;4973059;28;20419;-63
2022/01/17 04:23:17;;;;;;;0.60;0.60;;;;;;;;;;4972620;28;20185;-63
2022/01/17 04:25:43;;;;;;;0.60;0.60;;;;;;;;;;4972642;28;20291;-63
2022/01/17 04:28:10;;;;;;;0.60;0.60;;;;;;;;;;4972876;28;20180;-63
2022/01/17 04:30:37;;;;;;;0.60;0.60;;;;;;;;;;4972755;28;20279;-63
2022/01/17 04:33:03;;;;;;;0.50;0.50;;;;;;;;;;4972363;28;20168;-63
2022/01/17 04:35:29;;;;;;;0.70;0.70;;;;;;;;;;4972567;28;20191;-63
2022/01/17 04:38:07;;;;;;;0.70;0.70;;;;;;;;;;4972636;28;20668;-63
2022/01/17 04:40:36;;;;;;;0.70;0.70;;;;;;;;;;4973835;28;20663;-63
2022/01/17 04:43:04;;;;;;;0.70;0.70;;;;;;;;;;4976464;28;20250;-63
2022/01/17 04:45:30;;;;;;;0.70;0.70;;;;;;;;;;4976304;28;20729;-63
2022/01/17 04:47:57;;;;;;;0.70;0.70;;;;;;;;;;4977149;28;20189;-63
2022/01/17 04:50:24;;;;;;;0.60;0.60;;;;;;;;;;4976565;28;20202;-63
2022/01/17 04:52:50;;;;;;;0.70;0.70;;;;;;;;;;4974926;28;20184;-63
2022/01/17 04:55:17;;;;;;;0.55;0.55;;;;;;;;;;4976418;28;20197;-62
2022/01/17 04:57:44;;;;;;;0.70;0.70;;;;;;;;;;4976388;28;20268;-64
2022/01/17 05:00:11;;;;;;;0.80;0.80;;;;;;;;;;4976494;28;20255;-63
2022/01/17 05:02:38;;;;;;;0.80;0.80;;;;;;;;;;4988263;28;20179;-63
2022/01/17 05:05:04;;;;;;;0.70;0.70;;;;;;;;;;4995675;28;20574;-63
2022/01/17 05:07:31;;;;;;;0.70;0.70;;;;;;;;;;4995415;28;20261;-63
2022/01/17 05:09:57;;;;;;;0.80;0.80;;;;;;;;;;4995579;28;20176;-63
2022/01/17 05:12:24;;;;;;;0.88;0.88;;;;;;;;;;4995380;28;20172;-63
2022/01/17 05:14:52;;;;;;;0.70;0.70;;;;;;;;;;4995116;28;20207;-62
2022/01/17 05:19:48;;;;;;;0.70;0.70;;;;;;;;;;4995654;28;20178;-63
2022/01/17 05:22:14;;;;;;;0.55;0.55;;;;;;;;;;4995658;28;20691;-63
2022/01/17 05:24:40;;;;;;;0.80;0.80;;;;;;;;;;4995644;28;20231;-63
2022/01/17 05:27:06;;;;;;;0.70;0.70;;;;;;;;;;4995148;28;20605;-63
2022/01/17 05:29:32;;;;;;;0.70;0.70;;;;;;;;;;4995545;28;20755;-63
2022/01/17 05:31:58;;;;;;;0.70;0.70;;;;;;;;;;4994556;28;20423;-63
2022/01/17 05:34:24;;;;;;;0.77;0.77;;;;;;;;;;4994768;28;20434;-60
2022/01/17 05:36:50;;;;;;;0.80;0.80;;;;;;;;;;4994483;28;20231;-63
2022/01/17 05:39:16;;;;;;;0.70;0.70;;;;;;;;;;4995101;28;20209;-63
2022/01/17 05:41:42;;;;;;;0.60;0.60;;;;;;;;;;4994143;28;20432;-63
2022/01/17 05:44:08;;;;;;;0.70;0.70;;;;;;;;;;4994833;28;20234;-63
2022/01/17 05:46:34;;;;;;;0.63;0.63;;;;;;;;;;4994566;28;20222;-63
2022/01/17 05:49:00;;;;;;;0.70;0.70;;;;;;;;;;4994674;28;20176;-62
2022/01/17 05:51:26;;;;;;;0.80;0.80;;;;;;;;;;4994603;28;20402;-62
2022/01/17 05:53:52;;;;;;;0.70;0.70;;;;;;;;;;4994317;28;20426;-62
2022/01/17 05:56:18;;;;;;;0.70;0.70;;;;;;;;;;4994265;28;20635;-63
2022/01/17 05:58:44;;;;;;;0.60;0.60;;;;;;;;;;4994682;28;20432;-63
2022/01/17 06:01:12;;;;;;;0.70;0.70;;;;;;;;;;4994295;28;20427;-63
2022/01/17 06:03:38;;;;;;;0.55;0.55;;;;;;;;;;4990465;28;20453;-63
2022/01/17 06:06:05;;;;;;;0.60;0.60;;;;;;;;;;4994209;28;20220;-63
2022/01/17 06:08:31;;;;;;;0.60;0.60;;;;;;;;;;4994395;28;20256;-63
2022/01/17 06:10:57;;;;;;;0.70;0.70;;;;;;;;;;4991621;28;20651;-63
2022/01/17 06:13:23;;;;;;;0.55;0.55;;;;;;;;;;4993027;28;20509;-63
2022/01/17 06:15:49;;;;;;;0.50;0.50;;;;;;;;;;4994064;28;20255;-63
2022/01/17 06:18:15;;;;;;;0.70;0.70;;;;;;;;;;4994103;28;20195;-60
2022/01/17 06:20:41;;;;;;;0.70;0.70;;;;;;;;;;4992169;28;20702;-63
2022/01/17 06:23:07;;;;;;;0.70;0.70;;;;;;;;;;4993785;28;20181;-60
2022/01/17 06:25:33;;;;;;;0.70;0.70;;;;;;;;;;4993794;28;20485;-63
2022/01/17 06:27:59;;;;;;;0.60;0.60;;;;;;;;;;4993557;28;20253;-61
2022/01/17 06:30:25;;;;;;;0.60;0.60;;;;;;;;;;4994157;28;20424;-61
2022/01/17 06:32:51;;;;;;;0.70;0.70;;;;;;;;;;4995555;28;20179;-60
2022/01/17 06:35:17;;;;;;;0.53;0.53;;;;;;;;;;4993706;28;20216;-62
2022/01/17 06:37:44;;;;;;;0.67;0.67;;;;;;;;;;4993558;28;20796;-63
2022/01/17 06:40:11;;;;;;;0.60;0.60;;;;;;;;;;4993861;28;20409;-63
2022/01/17 06:42:37;;;;;;;0.80;0.80;;;;;;;;;;4992011;28;20270;-63
2022/01/17 06:45:04;;;;;;;0.70;0.70;;;;;;;;;;4993921;28;20279;-63
2022/01/17 06:47:31;;;;;;;0.70;0.70;;;;;;;;;;4992422;28;20267;-63
2022/01/17 06:49:57;;;;;;;0.60;0.60;;;;;;;;;;4976341;28;20185;-61
2022/01/17 06:52:23;;;;;;;0.60;0.60;;;;;;;;;;4992481;28;20669;-63
2022/01/17 06:54:50;;;;;;;0.85;0.85;;;;;;;;;;4993473;28;20459;-63
2022/01/17 06:57:16;;;;;;;0.60;0.60;;;;;;;;;;4993742;28;20178;-61
2022/01/17 06:59:42;;;;;;;0.60;0.60;;;;;;;;;;4993316;28;20196;-63
2022/01/17 07:02:08;;;;;;;0.70;0.70;;;;;;;;;;4993517;28;20646;-63
2022/01/17 07:04:34;;;;;;;0.70;0.70;;;;;;;;;;4991921;28;20207;-63
2022/01/17 07:07:02;;;;;;;0.70;0.70;;;;;;;;;;4993704;28;20207;-63
2022/01/17 07:09:29;;;;;;;0.70;0.70;;;;;;;;;;4993049;28;20971;-63
2022/01/17 07:11:59;;;;;;;0.65;0.65;;;;;;;;;;4993256;28;20168;-63
2022/01/17 07:14:25;;;;;;;0.60;0.60;;;;;;;;;;4992783;28;20551;-63
2022/01/17 07:16:51;;;;;;;0.68;0.68;;;;;;;;;;4992507;28;20184;-63
2022/01/17 07:19:17;;;;;;;0.70;0.70;;;;;;;;;;4992106;28;20278;-63
2022/01/17 07:21:43;;;;;;;0.60;0.60;;;;;;;;;;4992339;28;20419;-63
2022/01/17 07:24:09;;;;;;;0.77;0.77;;;;;;;;;;4992597;28;20425;-61
2022/01/17 07:26:35;;;;;;;0.50;0.50;;;;;;;;;;4990687;28;20201;-63
2022/01/17 07:29:02;;;;;;;0.70;0.70;;;;;;;;;;4992247;28;20406;-63
2022/01/17 07:31:28;;;;;;;0.77;0.77;;;;;;;;;;4992955;28;20863;-63
2022/01/17 07:33:54;;;;;;;0.60;0.60;;;;;;;;;;4991277;28;20185;-63
2022/01/17 07:36:20;;;;;;;0.70;0.70;;;;;;;;;;4992827;28;20257;-63
2022/01/17 07:38:47;;;;;;;0.70;0.70;;;;;;;;;;4992961;28;20811;-63
2022/01/17 07:41:14;;;;;;;0.70;0.70;;;;;;;;;;4992898;28;20731;-63
2022/01/17 07:43:41;;;;;;;0.80;0.80;;;;;;;;;;4991248;28;20185;-62
2022/01/17 07:46:17;;;;;;;0.70;0.70;;;;;;;;;;4989257;28;20287;-62
2022/01/17 07:51:28;;;;;;;0.63;0.63;;;;;;;;;;4992973;28;20262;-63
2022/01/17 07:53:56;;;;;;;0.80;0.80;;;;;;;;;;4992551;28;20181;-63
2022/01/17 07:56:22;;;;;;;0.70;0.70;;;;;;;;;;4992603;28;20208;-63
2022/01/17 07:58:48;;;;;;;0.70;0.70;;;;;;;;;;4991984;28;20171;-63
2022/01/17 08:01:14;;;;;;;0.70;0.70;;;;;;;;;;4991084;28;20612;-61
2022/01/17 08:03:40;;;;;;;0.80;0.80;;;;;;;;;;4992623;28;20416;-63
2022/01/17 08:06:06;;;;;;;0.90;0.90;;;;;;;;;;4992291;28;20766;-63
2022/01/17 08:08:32;;;;;;;0.80;0.80;;;;;;;;;;4992357;28;20430;-63
2022/01/17 08:10:58;;;;;;;0.70;0.70;;;;;;;;;;4990413;28;20423;-63
2022/01/17 08:13:24;;;;;;;0.60;0.60;;;;;;;;;;4991056;28;20442;-62
2022/01/17 08:15:50;;;;;;;0.85;0.85;;;;;;;;;;4989904;28;20474;-63
2022/01/17 08:18:17;;;;;;;0.60;0.60;;;;;;;;;;4992357;28;20185;-63
2022/01/17 08:20:43;;;;;;;0.70;0.70;;;;;;;;;;4992284;28;20181;-63
2022/01/17 08:23:09;;;;;;;0.60;0.60;;;;;;;;;;4990196;28;20184;-63
2022/01/17 08:25:36;;;;;;;0.73;0.73;;;;;;;;;;4992227;28;20212;-63
2022/01/17 08:28:02;;;;;;;0.70;0.70;;;;;;;;;;4992089;28;20175;-63
2022/01/17 08:30:29;;;;;;;0.70;0.70;;;;;;;;;;4992445;28;20175;-63
2022/01/17 08:32:55;;;;;;;0.60;0.60;;;;;;;;;;4991619;28;20412;-63
2022/01/17 08:35:22;;;;;;;0.70;0.70;;;;;;;;;;4991723;28;20192;-62
2022/01/17 08:37:48;;;;;;;0.73;0.73;;;;;;;;;;4992243;28;20614;-62
2022/01/17 08:40:14;;;;;;;0.70;0.70;;;;;;;;;;4992093;28;20204;-63
2022/01/17 08:42:40;;;;;;;0.60;0.60;;;;;;;;;;4991365;28;20861;-62
2022/01/17 08:47:38;;;;;;;0.73;0.73;;;;;;;;;;5009708;28;20648;-65
2022/01/17 08:50:05;;;;;;;0.80;0.80;;;;;;;;;;5011462;28;20250;-65
2022/01/17 08:52:31;;;;;;;0.80;0.80;;;;;;;;;;5011224;28;20407;-65
2022/01/17 08:54:57;;;;;;;0.63;0.63;;;;;;;;;;5011497;28;20203;-65
2022/01/17 08:57:24;;;;;;;0.95;0.95;;;;;;;;;;5011098;28;20996;-66
2022/01/17 08:59:50;;;;;;;0.80;0.80;;;;;;;;;;5011370;28;20188;-66
2022/01/17 09:02:17;;;;;;;0.80;0.80;;;;;;;;;;5011508;28;20175;-65
2022/01/17 09:04:42;;;;;;;0.80;0.80;;;;;;;;;;5011348;28;20200;-66
2022/01/17 09:07:10;;;;;;;0.80;0.80;;;;;;;;;;5011378;28;20192;-66
2022/01/17 09:09:36;;;;;;;0.80;0.80;;;;;;;;;;5011321;28;20506;-66
2022/01/17 09:12:02;;;;;;;0.70;0.70;;;;;;;;;;5011450;28;20180;-65
2022/01/17 09:14:28;;;;;;;0.70;0.70;;;;;;;;;;5011178;28;20181;-67
2022/01/17 09:16:54;;;;;;;0.80;0.80;;;;;;;;;;5011353;28;20189;-65
2022/01/17 09:19:20;;;;;;;0.80;0.80;;;;;;;;;;5011681;28;20522;-66
2022/01/17 09:21:46;;;;;;;0.80;0.80;;;;;;;;;;5011825;28;20183;-67
2022/01/17 09:24:12;;;;;;;0.70;0.70;;;;;;;;;;5011542;28;20411;-67
2022/01/17 09:26:38;;;;;;;0.90;0.90;;;;;;;;;;5012803;28;20949;-66
2022/01/17 09:29:04;;;;;;;0.70;0.70;;;;;;;;;;5015234;28;20173;-67
2022/01/17 09:31:30;;;;;;;0.60;0.60;;;;;;;;;;5015365;28;20443;-67
2022/01/17 09:33:56;;;;;;;0.70;0.70;;;;;;;;;;5014788;28;20474;-65
2022/01/17 09:36:25;;;;;;;0.60;0.60;;;;;;;;;;5015058;28;20204;-66
2022/01/17 09:38:51;;;;;;;0.60;0.60;;;;;;;;;;5015062;28;20796;-65
2022/01/17 09:41:17;;;;;;;0.60;0.60;;;;;;;;;;5014888;28;20228;-66
2022/01/17 09:43:43;;;;;;;0.60;0.60;;;;;;;;;;5014616;28;20240;-68
2022/01/17 09:46:09;;;;;;;0.70;0.70;;;;;;;;;;5014748;28;20885;-65
2022/01/17 09:48:38;;;;;;;0.60;0.60;;;;;;;;;;5014754;28;20538;-65
2022/01/17 09:51:15;;;;;;;0.75;0.75;;;;;;;;;;5014639;28;20196;-66
2022/01/17 09:53:41;;;;;;;0.70;0.70;;;;;;;;;;5014403;28;20188;-66
2022/01/17 09:56:08;;;;;;;0.80;0.80;;;;;;;;;;5014147;28;20669;-67
2022/01/17 09:58:36;;;;;;;0.80;0.80;;;;;;;;;;5014355;28;20239;-66
2022/01/17 10:01:03;;;;;;;0.80;0.80;;;;;;;;;;5014442;28;20190;-67
2022/01/17 10:03:30;;;;;;;0.80;0.80;;;;;;;;;;5014138;28;20854;-66
2022/01/17 10:05:56;;;;;;;0.63;0.63;;;;;;;;;;5014437;28;20845;-66
2022/01/17 10:08:22;;;;;;;0.70;0.70;;;;;;;;;;5014429;28;20792;-65
2022/01/17 10:11:00;;;;;;;0.77;0.77;;;;;;;;;;5014200;28;20533;-67
2022/01/17 10:13:28;;;;;;;0.80;0.80;;;;;;;;;;5013970;28;20173;-67
2022/01/17 10:16:00;;;;;;;0.80;0.80;;;;;;;;;;5014263;28;20603;-66
2022/01/17 10:18:49;;;;;;;0.80;0.80;;;;;;;;;;4996705;28;20591;-66
2022/01/17 10:21:26;;;;;;;0.70;0.70;;;;;;;;;;5004024;28;20235;-66
2022/01/17 10:37:12;;;;;;;0.60;0.60;;;;;;;;;;5013469;28;20744;-65
2022/01/17 10:39:51;;;;;;;0.60;0.60;;;;;;;;;;5012589;28;20234;-65
2022/01/17 10:42:24;;;;;;;0.70;0.70;;;;;;;;;;5013556;28;20179;-64
2022/01/17 10:44:50;;;;;;;0.60;0.60;;;;;;;;;;5013533;28;20200;-65
2022/01/17 10:47:24;;;;;;;0.60;0.60;;;;;;;;;;5013326;28;20267;-65
2022/01/17 10:49:57;;;;;;;0.80;0.80;;;;;;;;;;5013522;28;20487;-65
2022/01/17 10:52:36;;;;;;;0.60;0.60;;;;;;;;;;5013026;28;20271;-66
2022/01/17 10:55:06;;;;;;;0.60;0.60;;;;;;;;;;5013312;28;20276;-65
2022/01/17 10:57:36;;;;;;;0.60;0.60;;;;;;;;;;5013222;28;20672;-67
2022/01/17 11:00:04;;;;;;;0.60;0.60;;;;;;;;;;5013343;28;20222;-65
2022/01/17 11:02:30;;;;;;;0.80;0.80;;;;;;;;;;5012962;28;20239;-66
2022/01/17 11:04:56;;;;;;;0.50;0.50;;;;;;;;;;5012896;28;20204;-66
2022/01/17 11:07:22;;;;;;;0.60;0.60;;;;;;;;;;5013107;28;20459;-68
2022/01/17 11:09:49;;;;;;;0.60;0.60;;;;;;;;;;5012882;28;20414;-67
2022/01/17 11:12:16;;;;;;;0.60;0.60;;;;;;;;;;4995683;28;20463;-66
2022/01/17 11:14:43;;;;;;;0.55;0.55;;;;;;;;;;4992962;28;20182;-66
2022/01/17 11:17:16;;;;;;;0.70;0.70;;;;;;;;;;4993075;28;20208;-65
2022/01/17 11:22:29;;;;;;;0.68;0.68;;;;;;;;;;4993318;28;20246;-64
2022/01/17 11:24:55;;;;;;;0.68;0.68;;;;;;;;;;4993240;28;20198;-66
2022/01/17 11:27:21;;;;;;;0.60;0.60;;;;;;;;;;4992937;28;20256;-67
2022/01/17 11:29:48;;;;;;;0.60;0.60;;;;;;;;;;4993081;28;20182;-67
2022/01/17 11:32:14;;;;;;;0.60;0.60;;;;;;;;;;4993105;28;20421;-66
2022/01/17 11:34:40;;;;;;;0.60;0.60;;;;;;;;;;4992652;28;20176;-66
2022/01/17 11:37:06;;;;;;;0.60;0.60;;;;;;;;;;4975415;28;20201;-67
2022/01/17 11:39:32;;;;;;;0.50;0.50;;;;;;;;;;4992878;28;20415;-65
2022/01/17 11:41:58;;;;;;;0.60;0.60;;;;;;;;;;4992925;28;20178;-65
2022/01/17 11:44:35;;;;;;;0.60;0.60;;;;;;;;;;4992559;28;20184;-65
2022/01/17 11:47:01;;;;;;;0.60;0.60;;;;;;;;;;4992632;28;20221;-65
2022/01/17 11:49:31;;;;;;;0.68;0.68;;;;;;;;;;4992621;28;20170;-66
2022/01/17 11:51:57;;;;;;;0.63;0.63;;;;;;;;;;4992819;28;20178;-65
2022/01/17 11:54:24;;;;;;;0.60;0.60;;;;;;;;;;4992512;28;20178;-65
2022/01/17 11:56:57;;;;;;;0.60;0.60;;;;;;;;;;4992587;28;20190;-67
2022/01/17 11:59:41;;;;;;;0.60;0.60;;;;;;;;;;4992781;28;20257;-65
2022/01/17 12:02:23;;;;;;;0.60;0.60;;;;;;;;;;4992804;28;20176;-65
2022/01/17 12:05:07;;;;;;;0.70;0.70;;;;;;;;;;4992258;28;20271;-66
2022/01/17 12:07:37;;;;;;;0.70;0.70;;;;;;;;;;4991953;28;20181;-67
2022/01/17 12:10:11;;;;;;;0.60;0.60;;;;;;;;;;4992364;28;20670;-65
2022/01/17 12:12:37;;;;;;;0.70;0.70;;;;;;;;;;4992023;28;20178;-67
2022/01/17 12:15:08;;;;;;;0.70;0.70;;;;;;;;;;4992397;28;20657;-65
2022/01/17 12:17:35;;;;;;;0.70;0.70;;;;;;;;;;5007572;28;20682;-66
2022/01/17 12:20:09;;;;;;;0.80;0.80;;;;;;;;;;5011846;28;20557;-65
2022/01/17 12:22:44;;;;;;;0.80;0.80;;;;;;;;;;5011807;28;20192;-67
2022/01/17 12:25:26;;;;;;;0.80;0.80;;;;;;;;;;5011239;28;20200;-67
2022/01/17 12:28:13;;;;;;;0.80;0.80;;;;;;;;;;5011640;28;20187;-65
2022/01/17 12:30:53;;;;;;;0.80;0.80;;;;;;;;;;5011403;28;20203;-66
2022/01/17 12:33:30;;;;;;;0.70;0.70;;;;;;;;;;5012021;28;20579;-65
2022/01/17 12:35:57;;;;;;;0.70;0.70;;;;;;;;;;5011341;28;20232;-64
2022/01/17 12:38:40;;;;;;;0.77;0.77;;;;;;;;;;5011827;28;20177;-66
2022/01/17 12:41:07;;;;;;;0.60;0.60;;;;;;;;;;5011657;28;20659;-64
2022/01/17 12:43:35;;;;;;;0.80;0.80;;;;;;;;;;5011729;28;20235;-65
2022/01/17 12:46:05;;;;;;;0.60;0.60;;;;;;;;;;5011604;28;20237;-65
2022/01/17 12:48:33;;;;;;;0.63;0.63;;;;;;;;;;5011490;28;20644;-66
2022/01/17 12:51:03;;;;;;;0.70;0.70;;;;;;;;;;5011651;28;20178;-66
2022/01/17 12:53:30;;;;;;;0.68;0.68;;;;;;;;;;5011509;28;20179;-65
2022/01/17 12:55:57;;;;;;;0.73;0.73;;;;;;;;;;5011712;28;20197;-65
2022/01/17 12:58:26;;;;;;;0.60;0.60;;;;;;;;;;5011680;28;20184;-64
2022/01/17 13:00:52;;;;;;;0.60;0.60;;;;;;;;;;5011739;28;20322;-65
2022/01/17 13:03:18;;;;;;;0.63;0.63;;;;;;;;;;5015312;28;20216;-65
2022/01/17 13:05:45;;;;;;;0.70;0.70;;;;;;;;;;5015186;28;20997;-64
2022/01/17 13:08:11;;;;;;;0.70;0.70;;;;;;;;;;5015646;28;20195;-68
2022/01/17 13:10:38;;;;;;;0.60;0.60;;;;;;;;;;5015333;28;20611;-65
2022/01/17 13:13:04;;;;;;;0.80;0.80;;;;;;;;;;4997623;28;20665;-64
2022/01/17 13:15:30;;;;;;;0.67;0.67;;;;;;;;;;5015358;28;20202;-66
2022/01/17 13:17:56;;;;;;;0.70;0.70;;;;;;;;;;5015334;28;20801;-64
2022/01/17 13:20:23;;;;;;;0.80;0.80;;;;;;;;;;5015160;28;20653;-64
2022/01/17 13:22:56;;;;;;;0.80;0.80;;;;;;;;;;5015384;28;20713;-64
2022/01/17 13:25:22;;;;;;;0.88;0.88;;;;;;;;;;5015332;28;20223;-64
2022/01/17 13:27:57;;;;;;;0.80;0.80;;;;;;;;;;5015335;28;20547;-64
2022/01/17 13:30:23;;;;;;;0.70;0.70;;;;;;;;;;5015001;28;20190;-65
2022/01/17 13:32:49;;;;;;;0.70;0.70;;;;;;;;;;5014964;28;20256;-65
2022/01/17 13:35:22;;;;;;;0.90;0.90;;;;;;;;;;5014903;28;20697;-66
2022/01/17 13:37:48;;;;;;;0.85;0.85;;;;;;;;;;5014887;28;20188;-64
2022/01/17 13:40:23;;;;;;;0.80;0.80;;;;;;;;;;5014832;28;20180;-66
2022/01/17 13:42:50;;;;;;;0.70;0.70;;;;;;;;;;5014812;28;20237;-65
2022/01/17 13:45:28;;;;;;;0.90;0.90;;;;;;;;;;5014402;28;20659;-65
2022/01/17 13:47:54;;;;;;;0.93;0.93;;;;;;;;;;5014692;28;20235;-65
2022/01/17 13:50:20;;;;;;;0.80;0.80;;;;;;;;;;5015030;28;20717;-67
2022/01/17 13:52:46;;;;;;;0.80;0.80;;;;;;;;;;5014786;28;20337;-67
2022/01/17 13:55:32;;;;;;;1.10;1.10;;;;;;;;;;5014754;28;20661;-66
2022/01/17 13:57:59;;;;;;;0.88;0.88;;;;;;;;;;5014826;28;20423;-65
2022/01/17 14:00:31;;;;;;;0.80;0.80;;;;;;;;;;5014967;28;20185;-66
2022/01/17 14:03:00;;;;;;;1.00;1.00;;;;;;;;;;4996975;28;20651;-66
2022/01/17 14:05:30;;;;;;;1.40;1.40;;;;;;;;;;5014115;28;20216;-64
2022/01/17 14:08:09;;;;;;;0.88;0.88;;;;;;;;;;5014035;28;20256;-66
2022/01/17 14:10:35;;;;;;;0.90;0.90;;;;;;;;;;5014062;28;20181;-67
2022/01/17 14:13:02;;;;;;;0.80;0.80;;;;;;;;;;5013775;28;20172;-66
2022/01/17 14:15:29;;;;;;;0.90;0.90;;;;;;;;;;5014227;28;20203;-66
2022/01/17 14:18:14;;;;;;;0.75;0.75;;;;;;;;;;5014060;28;20177;-66
2022/01/17 14:20:42;;;;;;;0.80;0.80;;;;;;;;;;5014062;28;20176;-66
2022/01/17 14:23:10;;;;;;;0.70;0.70;;;;;;;;;;5013938;28;20290;-66
2022/01/17 14:25:37;;;;;;;0.70;0.70;;;;;;;;;;5013714;28;20234;-67
2022/01/17 14:28:05;;;;;;;0.70;0.70;;;;;;;;;;5013652;28;20220;-66
2022/01/17 14:30:32;;;;;;;0.60;0.60;;;;;;;;;;5013719;28;20200;-66
2022/01/17 14:33:13;;;;;;;0.65;0.65;;;;;;;;;;5013703;28;20643;-66
2022/01/17 14:35:40;;;;;;;0.70;0.70;;;;;;;;;;5013479;28;20568;-67
2022/01/17 14:38:06;;;;;;;0.70;0.70;;;;;;;;;;5013629;28;20188;-66
2022/01/17 14:40:32;;;;;;;0.60;0.60;;;;;;;;;;5013687;28;20182;-66
2022/01/17 14:43:13;;;;;;;0.70;0.70;;;;;;;;;;5013339;28;20411;-66
2022/01/17 14:48:14;;;;;;;0.70;0.70;;;;;;;;;;4971523;28;20213;-65
2022/01/17 14:50:40;;;;;;;0.73;0.73;;;;;;;;;;4967591;28;20721;-66
2022/01/17 14:53:14;;;;;;;0.80;0.80;;;;;;;;;;4973673;28;20262;-66
2022/01/17 15:00:56;;;;;;;0.90;0.90;;;;;;;;;;4974339;28;20500;-65
2022/01/17 15:03:31;;;;;;;0.70;0.70;;;;;;;;;;4973648;28;20245;-66
2022/01/17 15:05:57;;;;;;;1.10;1.10;;;;;;;;;;4974006;28;20218;-65
2022/01/17 15:08:23;;;;;;;1.10;1.10;;;;;;;;;;4973389;28;20170;-65
2022/01/17 15:10:49;;;;;;;1.20;1.20;;;;;;;;;;4974797;28;20182;-65
2022/01/17 15:13:15;;;;;;;0.90;0.90;;;;;;;;;;4973693;28;20924;-66
2022/01/17 15:15:42;;;;;;;0.90;0.90;;;;;;;;;;4973471;28;20186;-65
2022/01/17 15:18:11;;;;;;;1.00;1.00;;;;;;;;;;4972351;28;20320;-67
2022/01/17 15:20:38;;;;;;;1.15;1.15;;;;;;;;;;4973623;28;20305;-64
2022/01/17 15:23:04;;;;;;;0.98;0.98;;;;;;;;;;4973307;28;20200;-65
2022/01/17 15:25:31;;;;;;;0.90;0.90;;;;;;;;;;4972963;28;20300;-66
2022/01/17 15:27:57;;;;;;;0.80;0.80;;;;;;;;;;4973347;28;20197;-66